createdAt,value
2019-06-08T00:01:16.736Z,17.07
2019-06-08T00:03:43.147Z,17.37
2019-06-08T00:06:09.735Z,18.73
2019-06-08T00:08:35.601Z,17.93
2019-06-08T00:11:01.510Z,16.87
2019-06-08T00:13:27.970Z,18.13
2019-06-08T00:15:53.851Z,18.13
2019-06-08T00:18:19.787Z,18.03
2019-06-08T00:20:45.673Z,17.77
2019-06-08T00:23:11.543Z,16.60
2019-06-08T00:25:37.882Z,16.70
2019-06-08T00:28:03.739Z,17.70
2019-06-08T00:30:30.711Z,17.70
2019-06-08T00:32:57.039Z,17.30
2019-06-08T00:35:22.988Z,18.37
2019-06-08T00:37:49.464Z,20.77
2019-06-08T00:40:15.713Z,22.00
2019-06-08T00:42:42.948Z,20.57
2019-06-08T00:45:09.013Z,21.30
2019-06-08T00:47:47.066Z,21.60
2019-06-08T00:50:05.272Z,26.20
2019-06-08T00:52:31.156Z,22.40
2019-06-08T00:54:57.016Z,21.67
2019-06-08T00:57:23.849Z,23.57
2019-06-08T00:59:49.823Z,20.03
2019-06-08T01:02:15.746Z,21.20
2019-06-08T01:04:41.946Z,21.10
2019-06-08T01:07:07.837Z,20.57
2019-06-08T01:09:33.704Z,22.70
2019-06-08T01:11:59.599Z,22.17
2019-06-08T01:14:25.457Z,23.87
2019-06-08T01:16:51.456Z,23.23
2019-06-08T01:19:17.331Z,23.10
2019-06-08T01:21:43.393Z,23.67
2019-06-08T01:24:09.263Z,21.17
2019-06-08T01:26:35.153Z,18.97
2019-06-08T01:29:01.673Z,17.23
2019-06-08T01:31:28.356Z,19.03
2019-06-08T01:33:54.348Z,18.73
2019-06-08T01:36:20.687Z,16.63
2019-06-08T01:38:46.732Z,14.43
2019-06-08T01:41:12.596Z,14.43
2019-06-08T01:43:39.215Z,12.30
2019-06-08T01:46:05.675Z,11.73
2019-06-08T01:48:32.353Z,11.73
2019-06-08T01:50:58.365Z,11.73
2019-06-08T01:53:24.892Z,10.93
2019-06-08T01:55:50.756Z,10.63
2019-06-08T01:58:17.321Z,9.63
2019-06-08T02:00:43.276Z,8.80
2019-06-08T02:03:09.198Z,9.17
2019-06-08T02:05:35.074Z,8.13
2019-06-08T02:08:00.962Z,8.07
2019-06-08T02:10:26.946Z,7.70
2019-06-08T02:12:52.842Z,7.47
2019-06-08T02:15:19.212Z,7.33
2019-06-08T02:17:45.418Z,6.73
2019-06-08T02:20:13.376Z,6.30
2019-06-08T02:22:39.448Z,5.80
2019-06-08T02:25:06.320Z,6.10
2019-06-08T02:27:33.572Z,6.03
2019-06-08T02:29:59.491Z,6.07
2019-06-08T02:32:25.383Z,6.00
2019-06-08T02:34:51.247Z,12.47
2019-06-08T02:37:17.120Z,5.50
2019-06-08T02:39:43.031Z,5.33
2019-06-08T02:42:08.884Z,5.93
2019-06-08T02:44:36.290Z,5.10
2019-06-08T02:47:02.315Z,4.33
2019-06-08T02:49:29.106Z,6.87
2019-06-08T02:51:55.171Z,4.67
2019-06-08T02:54:21.553Z,4.70
2019-06-08T02:56:47.829Z,5.90
2019-06-08T02:59:14.405Z,4.53
2019-06-08T03:01:40.839Z,5.30
2019-06-08T03:04:06.824Z,3.93
2019-06-08T03:06:35.085Z,6.13
2019-06-08T03:09:04.169Z,4.87
2019-06-08T03:11:30.537Z,4.20
2019-06-08T03:13:56.512Z,3.67
2019-06-08T03:16:22.378Z,4.27
2019-06-08T03:18:48.260Z,5.83
2019-06-08T03:21:14.119Z,3.03
2019-06-08T03:23:41.513Z,3.50
2019-06-08T03:26:07.875Z,4.27
2019-06-08T03:28:35.607Z,3.67
2019-06-08T03:31:01.523Z,3.60
2019-06-08T03:33:27.675Z,2.90
2019-06-08T03:35:57.581Z,2.73
2019-06-08T03:38:21.378Z,3.30
2019-06-08T03:40:47.234Z,3.50
2019-06-08T03:43:13.097Z,3.80
2019-06-08T03:45:40.660Z,2.97
2019-06-08T03:48:06.649Z,3.70
2019-06-08T03:50:32.535Z,4.30
2019-06-08T03:52:58.394Z,4.43
2019-06-08T03:55:24.284Z,2.00
2019-06-08T03:57:50.275Z,2.27
2019-06-08T04:00:16.361Z,3.50
2019-06-08T04:02:43.734Z,2.70
2019-06-08T04:05:10.283Z,4.00
2019-06-08T04:07:37.583Z,2.27
2019-06-08T04:10:04.730Z,5.97
2019-06-08T04:12:30.590Z,2.30
2019-06-08T04:14:56.481Z,3.10
2019-06-08T04:17:22.381Z,3.03
2019-06-08T04:20:09.069Z,4.13
2019-06-08T04:22:15.991Z,4.00
2019-06-08T04:24:42.429Z,4.53
2019-06-08T04:27:08.731Z,4.53
2019-06-08T04:29:34.627Z,3.00
2019-06-08T04:32:00.483Z,2.40
2019-06-08T04:34:26.400Z,1.63
2019-06-08T04:36:52.244Z,2.53
2019-06-08T04:39:18.629Z,3.10
2019-06-08T04:41:45.411Z,3.93
2019-06-08T04:44:12.258Z,2.83
2019-06-08T04:46:38.302Z,2.83
2019-06-08T04:49:04.250Z,4.27
2019-06-08T04:51:30.105Z,4.37
2019-06-08T04:53:56.029Z,4.20
2019-06-08T04:56:21.921Z,4.00
2019-06-08T04:58:48.986Z,3.60
2019-06-08T05:01:15.582Z,4.30
2019-06-08T05:03:43.303Z,3.53
2019-06-08T05:06:09.250Z,2.77
2019-06-08T05:08:35.134Z,3.53
2019-06-08T05:11:01.029Z,1.90
2019-06-08T05:13:26.893Z,2.00
2019-06-08T05:15:52.773Z,2.33
2019-06-08T05:18:18.648Z,3.63
2019-06-08T05:20:47.237Z,3.03
2019-06-08T05:23:12.290Z,3.70
2019-06-08T05:25:39.096Z,2.37
2019-06-08T05:28:05.033Z,2.40
2019-06-08T05:30:30.916Z,3.10
2019-06-08T05:32:56.778Z,3.37
2019-06-08T05:35:22.696Z,2.17
2019-06-08T05:37:49.718Z,2.50
2019-06-08T05:40:15.969Z,2.37
2019-06-08T05:42:42.773Z,1.97
2019-06-08T05:45:09.782Z,4.67
2019-06-08T05:47:35.760Z,2.53
2019-06-08T05:50:03.820Z,3.17
2019-06-08T05:52:29.706Z,3.97
2019-06-08T05:54:55.574Z,2.13
2019-06-08T05:57:21.461Z,6.47
2019-06-08T05:59:48.158Z,2.13
2019-06-08T06:02:14.142Z,5.50
2019-06-08T06:04:40.872Z,3.77
2019-06-08T06:07:06.890Z,4.73
2019-06-08T06:09:32.964Z,1.97
2019-06-08T06:11:58.844Z,2.43
2019-06-08T06:14:24.701Z,3.20
2019-06-08T06:16:51.341Z,3.40
2019-06-08T06:19:17.255Z,7.10
2019-06-08T06:21:43.150Z,3.67
2019-06-08T06:24:09.003Z,2.90
2019-06-08T06:26:34.892Z,2.80
2019-06-08T06:29:00.760Z,2.73
2019-06-08T06:31:26.736Z,4.33
2019-06-08T06:33:52.599Z,3.43
2019-06-08T06:36:18.473Z,4.20
2019-06-08T06:38:45.829Z,3.53
2019-06-08T06:41:11.827Z,3.07
2019-06-08T06:43:37.714Z,4.37
2019-06-08T06:46:03.571Z,3.50
2019-06-08T06:48:29.456Z,4.50
2019-06-08T06:50:55.320Z,2.53
2019-06-08T06:53:21.196Z,4.13
2019-06-08T06:55:47.057Z,4.50
2019-06-08T06:58:12.946Z,3.63
2019-06-08T07:00:38.812Z,4.23
2019-06-08T07:03:04.754Z,6.10
2019-06-08T07:05:30.602Z,4.03
2019-06-08T07:07:56.585Z,3.47
2019-06-08T07:10:22.445Z,1.70
2019-06-08T07:12:48.666Z,4.27
2019-06-08T07:15:18.389Z,2.37
2019-06-08T07:17:44.271Z,3.70
2019-06-08T07:20:10.229Z,4.37
2019-06-08T07:22:36.118Z,2.73
2019-06-08T07:25:02.879Z,2.00
2019-06-08T07:27:28.776Z,4.60
2019-06-08T07:29:54.882Z,3.67
2019-06-08T07:32:20.806Z,3.23
2019-06-08T07:34:47.815Z,4.07
2019-06-08T07:37:14.470Z,3.80
2019-06-08T07:39:40.363Z,3.10
2019-06-08T07:42:06.228Z,5.83
2019-06-08T07:44:32.109Z,4.67
2019-06-08T07:46:57.970Z,2.67
2019-06-08T07:49:23.857Z,3.03
2019-06-08T07:52:06.001Z,3.43
2019-06-08T07:54:17.513Z,2.10
2019-06-08T07:56:43.375Z,2.20
2019-06-08T07:59:09.263Z,2.20
2019-06-08T08:01:36.503Z,3.17
2019-06-08T08:04:02.645Z,2.90
2019-06-08T08:06:30.581Z,2.80
2019-06-08T08:08:56.861Z,2.63
2019-06-08T08:11:23.537Z,3.67
2019-06-08T08:13:51.149Z,2.90
2019-06-08T08:16:17.200Z,2.97
2019-06-08T08:18:43.083Z,2.40
2019-06-08T08:21:21.387Z,3.83
2019-06-08T08:23:38.242Z,2.60
2019-06-08T08:26:04.201Z,3.83
2019-06-08T08:28:30.110Z,3.10
2019-06-08T08:30:58.593Z,4.57
2019-06-08T08:33:23.741Z,1.87
2019-06-08T08:35:51.116Z,4.37
2019-06-08T08:38:17.786Z,3.20
2019-06-08T08:40:43.683Z,2.80
2019-06-08T08:43:09.729Z,4.77
2019-06-08T08:45:37.346Z,3.03
2019-06-08T08:48:21.200Z,4.50
2019-06-08T08:50:31.082Z,4.03
2019-06-08T08:53:00.308Z,2.90
2019-06-08T08:55:24.862Z,3.60
2019-06-08T08:57:52.152Z,3.83
2019-06-08T09:00:18.911Z,2.93
2019-06-08T09:02:44.798Z,3.40
2019-06-08T09:05:11.021Z,2.93
2019-06-08T09:07:38.564Z,4.53
2019-06-08T09:10:05.234Z,3.17
2019-06-08T09:12:31.596Z,4.63
2019-06-08T09:15:00.218Z,5.03
2019-06-08T09:17:27.876Z,1.97
2019-06-08T09:19:54.073Z,4.63
2019-06-08T09:22:20.680Z,4.30
2019-06-08T09:24:48.563Z,6.77
2019-06-08T09:27:14.558Z,3.90
2019-06-08T09:29:40.903Z,8.50
2019-06-08T09:32:08.172Z,5.63
2019-06-08T09:34:35.321Z,3.83
2019-06-08T09:37:02.954Z,2.73
2019-06-08T09:39:29.229Z,5.53
2019-06-08T09:41:58.198Z,5.07
2019-06-08T09:44:23.123Z,4.43
2019-06-08T09:46:48.998Z,5.10
2019-06-08T09:49:15.565Z,8.63
2019-06-08T09:51:41.452Z,6.00
2019-06-08T09:54:11.741Z,5.77
2019-06-08T09:56:37.808Z,4.00
2019-06-08T09:59:06.098Z,5.07
2019-06-08T10:01:31.253Z,6.43
2019-06-08T10:04:00.824Z,5.47
2019-06-08T10:06:24.990Z,4.20
2019-06-08T10:08:50.856Z,3.77
2019-06-08T10:11:16.779Z,7.53
2019-06-08T10:13:43.500Z,4.50
2019-06-08T10:16:10.449Z,5.00
2019-06-08T10:18:38.591Z,5.03
2019-06-08T10:21:06.142Z,5.03
2019-06-08T10:23:34.715Z,6.47
2019-06-08T10:26:01.372Z,4.70
2019-06-08T10:28:28.997Z,5.60
2019-06-08T10:30:56.048Z,3.77
2019-06-08T10:33:23.050Z,3.83
2019-06-08T10:35:48.949Z,4.97
2019-06-08T10:38:14.847Z,3.67
2019-06-08T10:41:07.118Z,6.43
2019-06-08T10:43:28.883Z,4.97
2019-06-08T10:45:54.721Z,5.73
2019-06-08T10:48:20.611Z,2.90
2019-06-08T10:50:47.497Z,5.20
2019-06-08T10:53:16.312Z,7.23
2019-06-08T10:55:41.326Z,5.67
2019-06-08T10:58:09.563Z,5.07
2019-06-08T11:00:34.951Z,6.20
2019-06-08T11:03:03.244Z,6.13
2019-06-08T11:05:28.635Z,4.73
2019-06-08T11:07:54.526Z,5.47
2019-06-08T11:10:20.401Z,4.17
2019-06-08T11:12:48.372Z,6.90
2019-06-08T11:15:14.130Z,4.23
2019-06-08T11:17:40.014Z,5.77
2019-06-08T11:20:07.408Z,6.73
2019-06-08T11:22:33.786Z,6.30
2019-06-08T11:25:00.750Z,2.97
2019-06-08T11:27:28.497Z,5.90
2019-06-08T11:29:54.511Z,8.60
2019-06-08T11:32:20.385Z,6.43
2019-06-08T11:34:48.669Z,4.90
2019-06-08T11:37:18.521Z,5.83
2019-06-08T11:39:41.803Z,6.87
2019-06-08T11:42:10.661Z,5.53
2019-06-08T11:44:35.490Z,5.60
2019-06-08T11:47:02.538Z,5.33
2019-06-08T11:49:28.478Z,3.93
2019-06-08T11:51:54.376Z,4.17
2019-06-08T11:54:33.231Z,4.13
2019-06-08T11:56:49.899Z,2.97
2019-06-08T11:59:15.984Z,6.60
2019-06-08T12:01:41.883Z,6.43
2019-06-08T12:04:08.178Z,5.07
2019-06-08T12:06:34.130Z,4.13
2019-06-08T12:09:00.311Z,3.53
2019-06-08T12:11:28.026Z,6.67
2019-06-08T12:13:53.988Z,4.77
2019-06-08T12:16:22.286Z,7.50
2019-06-08T12:18:49.290Z,5.33
2019-06-08T12:21:15.399Z,5.17
2019-06-08T12:23:41.295Z,5.47
2019-06-08T12:26:08.177Z,4.40
2019-06-08T12:28:34.148Z,3.87
2019-06-08T12:31:01.097Z,3.77
2019-06-08T12:33:30.347Z,6.07
2019-06-08T12:35:54.865Z,3.73
2019-06-08T12:38:20.752Z,5.53
2019-06-08T12:40:48.560Z,4.53
2019-06-08T12:43:15.756Z,4.73
2019-06-08T12:45:41.901Z,7.63
2019-06-08T12:48:10.326Z,6.53
2019-06-08T12:50:35.665Z,4.77
2019-06-08T12:53:02.248Z,4.97
2019-06-08T12:55:28.196Z,6.47
2019-06-08T12:57:55.000Z,3.60
2019-06-08T13:00:21.729Z,7.50
2019-06-08T13:02:51.017Z,7.40
2019-06-08T13:05:21.118Z,4.93
2019-06-08T13:07:47.394Z,6.13
2019-06-08T13:10:13.257Z,5.53
2019-06-08T13:12:40.967Z,5.33
2019-06-08T13:15:08.442Z,6.87
2019-06-08T13:17:34.933Z,4.00
2019-06-08T13:20:00.818Z,4.90
2019-06-08T13:22:29.037Z,3.67
2019-06-08T13:24:54.543Z,2.57
2019-06-08T13:27:22.789Z,4.90
2019-06-08T13:29:48.928Z,4.40
2019-06-08T13:32:16.512Z,4.43
2019-06-08T13:34:44.315Z,4.13
2019-06-08T13:37:10.582Z,4.83
2019-06-08T13:39:39.887Z,4.97
2019-06-08T13:42:07.767Z,5.13
2019-06-08T13:44:37.686Z,6.37
2019-06-08T13:47:03.481Z,6.67
2019-06-08T13:49:30.869Z,5.03
2019-06-08T13:51:58.406Z,7.47
2019-06-08T13:54:24.440Z,4.23
2019-06-08T13:56:50.687Z,2.50
2019-06-08T13:59:23.092Z,5.70
2019-06-08T14:01:47.788Z,3.80
2019-06-08T14:04:15.020Z,3.93
2019-06-08T14:06:44.929Z,4.53
2019-06-08T14:09:10.797Z,7.47
2019-06-08T14:11:36.658Z,4.33
2019-06-08T14:14:02.651Z,5.07
2019-06-08T14:16:29.727Z,4.17
2019-06-08T14:18:55.803Z,4.60
2019-06-08T14:21:29.432Z,4.87
2019-06-08T14:23:49.529Z,6.07
2019-06-08T14:26:15.385Z,7.67
2019-06-08T14:28:41.292Z,5.90
2019-06-08T14:31:08.120Z,5.43
2019-06-08T14:33:34.931Z,7.13
2019-06-08T14:36:01.602Z,4.80
2019-06-08T14:38:35.184Z,5.27
2019-06-08T14:40:55.292Z,5.87
2019-06-08T14:43:21.306Z,15.50
2019-06-08T14:45:47.572Z,4.37
2019-06-08T14:48:13.703Z,9.40
2019-06-08T14:50:41.013Z,4.33
2019-06-08T14:53:08.632Z,6.90
2019-06-08T14:55:34.694Z,3.53
2019-06-08T14:58:00.519Z,6.50
2019-06-08T15:00:27.768Z,7.60
2019-06-08T15:02:53.789Z,5.93
2019-06-08T15:05:19.992Z,4.83
2019-06-08T15:07:47.798Z,3.17
2019-06-08T15:10:14.051Z,8.57
2019-06-08T15:12:39.920Z,6.43
2019-06-08T15:15:08.310Z,4.63
2019-06-08T15:17:33.775Z,5.20
2019-06-08T15:19:59.666Z,8.50
2019-06-08T15:22:26.812Z,8.53
2019-06-08T15:24:53.323Z,8.87
2019-06-08T15:27:22.638Z,5.37
2019-06-08T15:29:47.808Z,4.83
2019-06-08T15:32:13.728Z,6.00
2019-06-08T15:34:39.614Z,4.80
2019-06-08T15:37:05.476Z,5.57
2019-06-08T15:39:33.879Z,6.03
2019-06-08T15:42:00.212Z,6.80
2019-06-08T15:44:28.642Z,6.50
2019-06-08T15:46:54.001Z,3.47
2019-06-08T15:49:19.959Z,36.63
2019-06-08T15:51:47.982Z,9.67
2019-06-08T15:54:13.605Z,4.90
2019-06-08T15:56:48.566Z,10.40
2019-06-08T15:59:09.239Z,5.90
2019-06-08T16:01:35.016Z,7.70
2019-06-08T16:04:03.956Z,10.63
2019-06-08T16:06:29.673Z,7.00
2019-06-08T16:08:55.574Z,7.43
2019-06-08T16:11:21.432Z,4.97
2019-06-08T16:13:47.320Z,7.60
2019-06-08T16:16:13.183Z,7.57
2019-06-08T16:18:39.068Z,4.33
2019-06-08T16:21:04.928Z,5.90
2019-06-08T16:23:31.808Z,8.07
2019-06-08T16:25:57.776Z,6.97
2019-06-08T16:28:23.664Z,6.10
2019-06-08T16:30:49.524Z,8.33
2019-06-08T16:33:15.411Z,7.13
2019-06-08T16:35:41.279Z,11.30
2019-06-08T16:38:07.175Z,6.67
2019-06-08T16:40:34.273Z,7.37
2019-06-08T16:43:00.253Z,10.37
2019-06-08T16:45:26.986Z,5.63
2019-06-08T16:47:52.924Z,5.30
2019-06-08T16:50:24.487Z,7.23
2019-06-08T16:52:46.653Z,3.63
2019-06-08T16:55:12.550Z,4.33
2019-06-08T16:57:41.098Z,4.73
2019-06-08T17:00:30.073Z,3.97
2019-06-08T17:02:35.123Z,4.27
2019-06-08T17:05:01.682Z,8.47
2019-06-08T17:07:27.740Z,2.60
2019-06-08T17:09:53.637Z,4.63
2019-06-08T17:12:19.500Z,3.37
2019-06-08T17:14:45.392Z,5.03
2019-06-08T17:17:11.258Z,4.27
2019-06-08T17:19:38.293Z,9.43
2019-06-08T17:22:04.660Z,4.50
2019-06-08T17:24:30.548Z,6.67
2019-06-08T17:26:56.768Z,4.87
2019-06-08T17:29:22.657Z,6.10
2019-06-08T17:31:48.619Z,7.33
2019-06-08T17:34:14.513Z,4.57
2019-06-08T17:36:40.717Z,10.17
2019-06-08T17:39:06.679Z,7.10
2019-06-08T17:41:32.549Z,3.30
2019-06-08T17:43:58.430Z,5.20
2019-06-08T17:46:24.290Z,4.20
2019-06-08T17:48:50.154Z,5.97
2019-06-08T17:51:16.039Z,3.73
2019-06-08T17:53:43.304Z,3.03
2019-06-08T17:56:09.494Z,2.83
2019-06-08T17:58:35.361Z,5.30
2019-06-08T18:01:01.244Z,4.83
2019-06-08T18:03:27.936Z,6.03
2019-06-08T18:05:53.921Z,5.50
2019-06-08T18:08:19.786Z,5.40
2019-06-08T18:10:45.683Z,4.80
2019-06-08T18:13:11.544Z,6.40
2019-06-08T18:15:39.972Z,5.23
2019-06-08T18:18:05.189Z,3.10
2019-06-08T18:20:31.085Z,4.77
2019-06-08T18:22:57.855Z,5.27
2019-06-08T18:25:23.948Z,4.67
2019-06-08T18:28:05.559Z,4.23
2019-06-08T18:30:19.163Z,3.23
2019-06-08T18:32:46.346Z,3.10
2019-06-08T18:35:12.854Z,3.23
2019-06-08T18:37:40.899Z,4.57
2019-06-08T18:40:07.262Z,4.60
2019-06-08T18:42:33.162Z,3.60
2019-06-08T18:44:59.047Z,4.60
2019-06-08T18:47:27.266Z,3.57
2019-06-08T18:49:52.700Z,4.33
2019-06-08T18:52:18.577Z,2.60
2019-06-08T18:54:45.763Z,3.10
2019-06-08T18:57:12.362Z,4.87
2019-06-08T18:59:43.151Z,2.10
2019-06-08T19:02:07.997Z,3.03
2019-06-08T19:04:33.974Z,3.77
2019-06-08T19:07:01.337Z,4.57
2019-06-08T19:09:27.555Z,4.23
2019-06-08T19:11:53.440Z,3.67
2019-06-08T19:14:20.833Z,4.23
2019-06-08T19:16:51.434Z,4.57
2019-06-08T19:19:14.649Z,3.23
2019-06-08T19:21:40.802Z,4.63
2019-06-08T19:24:09.624Z,2.83
2019-06-08T19:26:34.488Z,2.43
2019-06-08T19:29:00.572Z,1.83
2019-06-08T19:31:27.643Z,2.40
2019-06-08T19:33:53.685Z,4.50
2019-06-08T19:36:19.539Z,2.83
2019-06-08T19:38:48.052Z,2.93
2019-06-08T19:41:13.158Z,4.43
2019-06-08T19:43:41.508Z,3.37
2019-06-08T19:46:07.273Z,2.77
2019-06-08T19:48:33.209Z,3.47
2019-06-08T19:50:59.058Z,3.67
2019-06-08T19:53:24.951Z,3.43
2019-06-08T19:55:53.959Z,3.63
2019-06-08T19:58:18.609Z,5.60
2019-06-08T20:00:48.094Z,4.27
2019-06-08T20:03:12.437Z,3.03
2019-06-08T20:05:38.292Z,5.07
2019-06-08T20:08:04.176Z,3.63
2019-06-08T20:10:30.039Z,3.80
2019-06-08T20:12:57.619Z,3.53
2019-06-08T20:15:23.805Z,1.90
2019-06-08T20:17:51.442Z,4.30
2019-06-08T20:20:18.364Z,2.77
2019-06-08T20:22:44.354Z,2.93
2019-06-08T20:25:10.796Z,2.57
2019-06-08T20:27:37.279Z,2.30
2019-06-08T20:30:08.703Z,6.13
2019-06-08T20:32:32.058Z,3.23
2019-06-08T20:34:57.936Z,3.93
2019-06-08T20:37:23.808Z,3.37
2019-06-08T20:40:02.791Z,6.23
2019-06-08T20:42:17.505Z,8.83
2019-06-08T20:44:43.993Z,6.87
2019-06-08T20:47:09.859Z,9.03
2019-06-08T20:49:37.263Z,6.77
2019-06-08T20:52:03.310Z,6.90
2019-06-08T20:54:29.199Z,4.70
2019-06-08T20:56:55.066Z,3.07
2019-06-08T20:59:30.085Z,4.60
2019-06-08T21:01:50.490Z,5.07
2019-06-08T21:04:18.186Z,3.33
2019-06-08T21:06:44.100Z,3.30
2019-06-08T21:09:09.989Z,3.03
2019-06-08T21:11:37.945Z,2.93
2019-06-08T21:14:04.144Z,2.80
2019-06-08T21:16:30.001Z,2.83
2019-06-08T21:18:57.912Z,4.63
2019-06-08T21:21:23.648Z,5.33
2019-06-08T21:23:53.980Z,5.53
2019-06-08T21:26:18.406Z,3.97
2019-06-08T21:28:47.148Z,3.30
2019-06-08T21:31:12.176Z,4.70
2019-06-08T21:33:38.098Z,5.73
2019-06-08T21:36:05.193Z,4.00
2019-06-08T21:38:31.793Z,3.63
2019-06-08T21:41:02.076Z,4.43
2019-06-08T21:43:27.718Z,4.33
2019-06-08T21:45:54.637Z,3.37
2019-06-08T21:48:20.996Z,2.73
2019-06-08T21:50:48.963Z,2.40
2019-06-08T21:53:14.655Z,3.60
2019-06-08T21:55:40.545Z,4.93
2019-06-08T21:58:08.098Z,3.50
2019-06-08T22:00:42.185Z,3.03
2019-06-08T22:03:02.743Z,3.30
2019-06-08T22:05:28.655Z,4.67
2019-06-08T22:07:54.518Z,3.80
2019-06-08T22:10:20.412Z,4.40
2019-06-08T22:12:48.388Z,4.63
2019-06-08T22:15:14.268Z,5.27
2019-06-08T22:17:40.133Z,3.03
2019-06-08T22:20:08.039Z,5.37
2019-06-08T22:22:34.178Z,4.90
2019-06-08T22:25:01.149Z,3.17
2019-06-08T22:27:27.342Z,6.53
2019-06-08T22:29:53.618Z,6.33
2019-06-08T22:32:19.577Z,3.23
2019-06-08T22:34:47.566Z,4.07
2019-06-08T22:37:13.329Z,4.03
2019-06-08T22:39:39.190Z,3.00
2019-06-08T22:42:05.080Z,6.07
2019-06-08T22:44:30.937Z,3.17
2019-06-08T22:46:59.844Z,4.80
2019-06-08T22:49:24.593Z,4.20
2019-06-08T22:51:50.480Z,3.93
2019-06-08T22:54:17.062Z,5.77
2019-06-08T22:56:43.032Z,6.77
2019-06-08T22:59:09.194Z,4.53
2019-06-08T23:01:35.287Z,3.60
2019-06-08T23:04:03.875Z,3.63
2019-06-08T23:06:28.983Z,4.27
2019-06-08T23:08:57.022Z,6.13
2019-06-08T23:11:22.624Z,4.10
2019-06-08T23:13:48.482Z,5.90
2019-06-08T23:16:14.345Z,4.53
2019-06-08T23:18:40.232Z,4.50
2019-06-08T23:21:08.729Z,4.10
2019-06-08T23:23:33.870Z,5.60
2019-06-08T23:26:02.108Z,3.50
2019-06-08T23:28:28.282Z,6.03
2019-06-08T23:31:07.953Z,2.60
2019-06-08T23:33:21.985Z,4.07
2019-06-08T23:36:21.717Z,2.87
2019-06-08T23:38:17.275Z,2.93
2019-06-08T23:40:43.310Z,2.10
2019-06-08T23:43:09.210Z,3.53
2019-06-08T23:45:35.080Z,3.17
2019-06-08T23:48:02.574Z,3.43
2019-06-08T23:50:28.669Z,4.57
2019-06-08T23:52:54.556Z,3.83
2019-06-08T23:55:20.412Z,3.93
2019-06-08T23:57:46.304Z,2.80
